createdAt,value
2023-04-27T00:04:00.509Z,7.29
2023-04-27T00:09:02.356Z,7.28
2023-04-27T00:14:04.367Z,7.26
2023-04-27T00:19:06.811Z,7.26
2023-04-27T00:24:08.753Z,7.25
2023-04-27T00:29:10.529Z,7.23
2023-04-27T00:34:12.310Z,7.20
2023-04-27T00:39:14.347Z,7.17
2023-04-27T00:44:25.387Z,7.19
2023-04-27T00:49:27.857Z,7.22
2023-04-27T00:54:30.337Z,7.23
2023-04-27T00:59:32.183Z,7.20
2023-04-27T01:04:34.065Z,7.18
2023-04-27T01:09:35.895Z,7.16
2023-04-27T01:14:37.807Z,7.14
2023-04-27T01:19:40.198Z,7.13
2023-04-27T01:24:42.023Z,7.08
2023-04-27T01:29:44.545Z,7.06
2023-04-27T01:34:46.398Z,7.05
2023-04-27T01:39:48.218Z,7.02
2023-04-27T01:44:50.303Z,6.97
2023-04-27T01:49:52.316Z,6.95
2023-04-27T01:54:54.098Z,6.93
2023-04-27T01:59:56.084Z,6.93
2023-04-27T02:04:57.893Z,6.88
2023-04-27T02:09:59.623Z,6.85
2023-04-27T02:15:01.396Z,6.81
2023-04-27T02:20:04.221Z,6.80
2023-04-27T02:25:07.220Z,6.76
2023-04-27T02:30:11.721Z,6.77
2023-04-27T02:35:14.168Z,6.79
2023-04-27T02:40:15.971Z,6.77
2023-04-27T02:45:17.963Z,6.75
2023-04-27T02:50:19.917Z,6.73
2023-04-27T02:55:21.765Z,6.71
2023-04-27T03:00:23.855Z,6.70
2023-04-27T03:05:29.006Z,6.67
2023-04-27T03:10:30.865Z,6.64
2023-04-27T03:15:32.712Z,6.59
2023-04-27T03:20:34.454Z,6.61
2023-04-27T03:25:36.249Z,6.58
2023-04-27T03:30:41.164Z,6.54
2023-04-27T03:35:42.938Z,6.53
2023-04-27T03:40:44.732Z,6.55
2023-04-27T03:45:46.760Z,6.53
2023-04-27T03:50:49.186Z,6.50
2023-04-27T03:55:51.427Z,6.50
2023-04-27T04:00:54.547Z,6.50
2023-04-27T04:05:56.423Z,6.44
2023-04-27T04:10:58.233Z,6.42
2023-04-27T04:16:09.373Z,6.42
2023-04-27T04:21:11.302Z,6.42
2023-04-27T04:26:14.927Z,6.44
2023-04-27T04:31:18.276Z,6.47
2023-04-27T04:36:20.153Z,6.47
2023-04-27T04:41:21.955Z,6.52
2023-04-27T04:46:24.689Z,6.57
2023-04-27T04:51:26.662Z,6.62
2023-04-27T04:56:28.524Z,6.66
2023-04-27T05:01:30.441Z,6.70
2023-04-27T05:06:32.268Z,6.78
2023-04-27T05:11:34.061Z,6.80
2023-04-27T05:16:36.032Z,6.81
2023-04-27T05:21:37.896Z,6.78
2023-04-27T05:26:39.853Z,6.82
2023-04-27T05:31:41.677Z,6.85
2023-04-27T05:36:43.776Z,6.92
2023-04-27T05:41:45.523Z,7.02
2023-04-27T05:46:47.294Z,7.09
2023-04-27T05:51:49.186Z,7.27
2023-04-27T05:56:51.145Z,7.42
2023-04-27T06:01:52.967Z,7.52
2023-04-27T06:06:56.360Z,7.70
2023-04-27T06:12:01.841Z,7.96
2023-04-27T06:17:04.635Z,8.64
2023-04-27T06:22:06.519Z,8.86
2023-04-27T06:27:08.381Z,9.18
2023-04-27T06:32:10.274Z,9.60
2023-04-27T06:37:12.261Z,10.09
2023-04-27T06:42:14.282Z,11.33
2023-04-27T06:47:16.170Z,11.91
2023-04-27T06:52:21.185Z,11.65
2023-04-27T06:57:23.023Z,12.00
2023-04-27T07:02:25.678Z,12.78
2023-04-27T07:07:27.723Z,11.76
2023-04-27T07:12:30.098Z,11.77
2023-04-27T07:17:33.071Z,11.37
2023-04-27T07:22:34.900Z,10.82
2023-04-27T07:27:36.764Z,11.37
2023-04-27T07:32:44.076Z,12.08
2023-04-27T07:37:45.884Z,11.55
2023-04-27T07:42:48.139Z,10.65
2023-04-27T07:47:58.872Z,10.34
2023-04-27T07:53:01.062Z,10.10
2023-04-27T07:58:04.757Z,10.93
2023-04-27T08:03:07.982Z,11.23
2023-04-27T08:08:10.149Z,11.16
2023-04-27T08:13:12.116Z,11.40
2023-04-27T08:18:13.930Z,11.76
2023-04-27T08:23:16.738Z,11.21
2023-04-27T08:28:18.469Z,10.36
2023-04-27T08:33:20.639Z,9.74
2023-04-27T08:38:24.296Z,9.78
2023-04-27T08:43:27.539Z,9.87
2023-04-27T08:48:29.697Z,9.45
2023-04-27T08:53:33.292Z,9.30
2023-04-27T08:58:39.335Z,9.50
2023-04-27T09:03:41.322Z,10.09
2023-04-27T09:08:48.835Z,12.44
2023-04-27T09:13:50.587Z,12.10
2023-04-27T09:18:53.247Z,11.22
2023-04-27T09:23:56.750Z,10.44
2023-04-27T09:28:58.735Z,10.09
2023-04-27T09:34:01.374Z,10.27
2023-04-27T09:39:05.026Z,10.92
2023-04-27T09:44:08.955Z,10.78
2023-04-27T09:49:13.924Z,10.71
2023-04-27T09:54:17.179Z,12.78
2023-04-27T09:59:52.679Z,14.32
2023-04-27T10:05:29.691Z,14.35
2023-04-27T10:10:47.035Z,14.43
2023-04-27T10:15:49.058Z,13.49
2023-04-27T10:20:52.700Z,12.68
2023-04-27T10:25:55.763Z,11.67
2023-04-27T10:30:58.043Z,10.96
2023-04-27T10:36:00.439Z,12.02
2023-04-27T10:41:05.392Z,13.34
2023-04-27T10:46:13.719Z,13.69
2023-04-27T10:51:17.626Z,14.35
2023-04-27T10:56:19.585Z,13.88
2023-04-27T11:01:29.442Z,13.13
2023-04-27T11:06:33.465Z,12.42
2023-04-27T11:11:35.411Z,11.78
2023-04-27T11:16:47.075Z,11.54
2023-04-27T11:21:49.088Z,11.67
2023-04-27T11:26:53.894Z,11.93
2023-04-27T11:31:55.772Z,11.84
2023-04-27T11:42:28.692Z,11.37
2023-04-27T11:47:33.524Z,11.63
2023-04-27T11:52:40.141Z,12.68
2023-04-27T11:57:43.160Z,12.80
2023-04-27T12:02:45.107Z,12.69
2023-04-27T12:07:46.983Z,12.42
2023-04-27T12:12:48.803Z,12.08
2023-04-27T12:17:50.832Z,11.87
2023-04-27T12:22:54.904Z,11.79
2023-04-27T12:27:56.719Z,11.78
2023-04-27T12:33:00.664Z,11.95
2023-04-27T12:38:03.409Z,11.87
2023-04-27T12:43:05.552Z,12.06
2023-04-27T12:48:08.031Z,12.21
2023-04-27T12:53:09.912Z,12.35
2023-04-27T12:58:11.849Z,12.44
2023-04-27T13:03:13.884Z,12.43
2023-04-27T13:08:15.960Z,12.58
2023-04-27T13:13:17.756Z,12.54
2023-04-27T13:18:19.794Z,12.61
2023-04-27T13:23:21.621Z,12.83
2023-04-27T13:28:25.075Z,12.82
2023-04-27T13:33:27.143Z,13.35
2023-04-27T13:38:29.173Z,13.18
2023-04-27T13:43:31.758Z,12.76
2023-04-27T13:48:33.610Z,12.87
2023-04-27T13:53:35.361Z,12.72
2023-04-27T13:58:37.403Z,12.75
2023-04-27T14:08:41.427Z,12.66
2023-04-27T14:13:43.184Z,12.55
2023-04-27T14:18:45.012Z,12.40
2023-04-27T14:23:47.117Z,12.31
2023-04-27T14:28:49.045Z,12.11
2023-04-27T14:33:53.715Z,12.01
2023-04-27T14:38:55.532Z,11.96
2023-04-27T14:43:57.355Z,12.01
2023-04-27T14:48:59.276Z,12.06
2023-04-27T14:54:02.315Z,12.05
2023-04-27T14:59:05.432Z,11.99
2023-04-27T15:04:12.104Z,12.03
2023-04-27T15:09:14.236Z,12.04
2023-04-27T15:14:19.896Z,12.04
2023-04-27T15:19:21.668Z,12.04
2023-04-27T15:24:23.447Z,11.95
2023-04-27T15:29:25.746Z,11.90
2023-04-27T15:34:27.611Z,11.85
2023-04-27T15:39:29.684Z,11.74
2023-04-27T15:44:31.472Z,11.80
2023-04-27T15:49:39.887Z,12.01
2023-04-27T15:54:47.987Z,12.13
2023-04-27T15:59:49.833Z,12.17
2023-04-27T16:04:56.389Z,12.05
2023-04-27T16:09:59.844Z,11.96
2023-04-27T16:15:02.091Z,11.80
2023-04-27T16:20:09.406Z,11.75
2023-04-27T16:25:11.642Z,11.61
2023-04-27T16:30:14.671Z,11.43
2023-04-27T16:35:18.172Z,11.38
2023-04-27T16:40:20.880Z,11.28
2023-04-27T16:45:22.672Z,11.27
2023-04-27T16:50:24.651Z,11.15
2023-04-27T16:55:28.388Z,11.09
2023-04-27T17:00:30.436Z,11.08
2023-04-27T17:05:33.299Z,11.04
2023-04-27T17:10:36.667Z,10.99
2023-04-27T17:15:38.934Z,10.96
2023-04-27T17:20:42.207Z,10.95
2023-04-27T17:25:44.134Z,10.94
2023-04-27T17:30:46.001Z,10.90
2023-04-27T17:35:48.069Z,10.85
2023-04-27T17:40:49.966Z,10.80
2023-04-27T17:45:52.203Z,10.80
2023-04-27T17:50:54.234Z,10.81
2023-04-27T17:55:56.293Z,10.73
2023-04-27T18:00:58.255Z,10.73
2023-04-27T18:06:00.134Z,10.69
2023-04-27T18:11:02.060Z,10.61
2023-04-27T18:16:04.398Z,10.48
2023-04-27T18:21:06.790Z,10.43
2023-04-27T18:26:11.003Z,10.35
2023-04-27T18:31:18.545Z,10.34
2023-04-27T18:36:20.833Z,10.24
2023-04-27T18:41:23.700Z,10.18
2023-04-27T18:46:26.058Z,10.16
2023-04-27T18:51:29.393Z,10.12
2023-04-27T18:56:31.631Z,10.10
2023-04-27T19:01:33.716Z,10.05
2023-04-27T19:06:35.851Z,9.99
2023-04-27T19:11:37.655Z,9.91
2023-04-27T19:16:41.440Z,9.87
2023-04-27T19:21:43.610Z,9.83
2023-04-27T19:26:46.744Z,9.82
2023-04-27T19:31:48.585Z,9.80
2023-04-27T19:36:50.605Z,9.74
2023-04-27T19:41:52.360Z,9.72
2023-04-27T19:46:54.116Z,9.62
2023-04-27T19:51:55.860Z,9.61
2023-04-27T19:56:57.709Z,9.56
2023-04-27T20:01:59.640Z,9.53
2023-04-27T20:07:03.286Z,9.48
2023-04-27T20:12:19.404Z,9.42
2023-04-27T20:17:31.381Z,9.40
2023-04-27T20:22:33.287Z,9.38
2023-04-27T20:27:35.921Z,9.36
2023-04-27T20:32:40.123Z,9.28
2023-04-27T20:37:43.427Z,9.25
2023-04-27T20:42:45.767Z,9.25
2023-04-27T20:47:47.857Z,9.21
2023-04-27T20:52:49.709Z,9.15
2023-04-27T20:57:51.438Z,9.10
2023-04-27T21:02:53.454Z,9.07
2023-04-27T21:07:55.470Z,9.00
2023-04-27T21:12:57.285Z,8.98
2023-04-27T21:18:00.512Z,8.90
2023-04-27T21:23:02.365Z,8.85
2023-04-27T21:28:04.446Z,8.78
2023-04-27T21:33:06.950Z,8.74
2023-04-27T21:38:08.862Z,8.71
2023-04-27T21:43:10.751Z,8.71
2023-04-27T21:48:12.520Z,8.68
2023-04-27T21:53:15.797Z,8.68
2023-04-27T21:58:17.710Z,8.63
2023-04-27T22:03:19.778Z,8.56
2023-04-27T22:08:21.716Z,8.46
2023-04-27T22:13:23.510Z,8.39
2023-04-27T22:18:25.311Z,8.27
2023-04-27T22:23:27.221Z,8.30
2023-04-27T22:28:29.004Z,8.28
2023-04-27T22:33:32.481Z,8.28
2023-04-27T22:38:34.223Z,8.24
2023-04-27T22:43:36.326Z,8.14
2023-04-27T22:48:38.084Z,8.12
2023-04-27T22:53:39.876Z,8.11
2023-04-27T22:58:41.659Z,8.09
2023-04-27T23:03:43.613Z,8.08
2023-04-27T23:08:47.004Z,8.07
2023-04-27T23:13:50.518Z,8.09
2023-04-27T23:18:52.906Z,8.08
2023-04-27T23:23:55.050Z,8.00
2023-04-27T23:28:57.403Z,7.92
2023-04-27T23:33:59.442Z,7.87
2023-04-27T23:39:01.211Z,7.83
2023-04-27T23:44:02.952Z,7.83
2023-04-27T23:49:04.855Z,7.80
2023-04-27T23:54:09.629Z,7.78
2023-04-27T23:59:11.633Z,7.78
